sensor_id;sensor_type;location;lat;lon;timestamp;P1;durP1;ratioP1;P2;durP2;ratioP2
64915;SDS011;51427;-27.442;153.014;2023-10-13T00:02:00;4.85;;;1.80;;
64915;SDS011;51427;-27.442;153.014;2023-10-13T00:04:31;3.97;;;1.75;;
64915;SDS011;51427;-27.442;153.014;2023-10-13T00:07:01;2.28;;;1.30;;
64915;SDS011;51427;-27.442;153.014;2023-10-13T00:09:30;2.70;;;1.48;;
64915;SDS011;51427;-27.442;153.014;2023-10-13T00:12:06;4.15;;;1.80;;
64915;SDS011;51427;-27.442;153.014;2023-10-13T00:14:40;2.63;;;1.33;;
64915;SDS011;51427;-27.442;153.014;2023-10-13T00:17:11;3.63;;;1.70;;
64915;SDS011;51427;-27.442;153.014;2023-10-13T00:19:50;1.50;;;1.35;;
64915;SDS011;51427;-27.442;153.014;2023-10-13T00:22:21;2.35;;;1.58;;
64915;SDS011;51427;-27.442;153.014;2023-10-13T00:24:48;2.35;;;1.33;;
64915;SDS011;51427;-27.442;153.014;2023-10-13T00:27:20;2.63;;;1.40;;
64915;SDS011;51427;-27.442;153.014;2023-10-13T00:30:07;4.25;;;1.60;;
64915;SDS011;51427;-27.442;153.014;2023-10-13T00:33:00;3.30;;;1.65;;
64915;SDS011;51427;-27.442;153.014;2023-10-13T00:35:29;3.47;;;1.60;;
64915;SDS011;51427;-27.442;153.014;2023-10-13T00:38:03;2.38;;;1.30;;
64915;SDS011;51427;-27.442;153.014;2023-10-13T00:40:42;4.22;;;1.55;;
64915;SDS011;51427;-27.442;153.014;2023-10-13T00:43:17;3.72;;;1.35;;
64915;SDS011;51427;-27.442;153.014;2023-10-13T00:45:47;1.55;;;1.45;;
64915;SDS011;51427;-27.442;153.014;2023-10-13T00:48:24;1.30;;;1.20;;
64915;SDS011;51427;-27.442;153.014;2023-10-13T00:51:03;2.80;;;1.38;;
64915;SDS011;51427;-27.442;153.014;2023-10-13T00:53:39;4.05;;;1.58;;
64915;SDS011;51427;-27.442;153.014;2023-10-13T00:56:07;4.15;;;1.35;;
64915;SDS011;51427;-27.442;153.014;2023-10-13T00:58:44;4.15;;;1.60;;
64915;SDS011;51427;-27.442;153.014;2023-10-13T01:01:12;4.47;;;1.95;;
64915;SDS011;51427;-27.442;153.014;2023-10-13T01:03:48;3.10;;;1.30;;
64915;SDS011;51427;-27.442;153.014;2023-10-13T01:06:28;1.75;;;1.30;;
64915;SDS011;51427;-27.442;153.014;2023-10-13T01:09:00;3.00;;;1.52;;
64915;SDS011;51427;-27.442;153.014;2023-10-13T01:11:38;4.35;;;1.42;;
64915;SDS011;51427;-27.442;153.014;2023-10-13T01:14:09;3.45;;;1.58;;
64915;SDS011;51427;-27.442;153.014;2023-10-13T01:16:40;2.95;;;1.23;;
64915;SDS011;51427;-27.442;153.014;2023-10-13T01:19:14;2.65;;;1.30;;
64915;SDS011;51427;-27.442;153.014;2023-10-13T01:21:53;4.47;;;1.40;;
64915;SDS011;51427;-27.442;153.014;2023-10-13T01:27:06;3.35;;;1.27;;
64915;SDS011;51427;-27.442;153.014;2023-10-13T01:29:43;3.03;;;1.40;;
64915;SDS011;51427;-27.442;153.014;2023-10-13T01:32:16;2.97;;;1.23;;
64915;SDS011;51427;-27.442;153.014;2023-10-13T01:34:44;4.68;;;1.40;;
64915;SDS011;51427;-27.442;153.014;2023-10-13T01:37:13;3.47;;;1.35;;
64915;SDS011;51427;-27.442;153.014;2023-10-13T01:39:45;2.92;;;1.45;;
64915;SDS011;51427;-27.442;153.014;2023-10-13T01:42:13;2.50;;;1.40;;
64915;SDS011;51427;-27.442;153.014;2023-10-13T01:44:45;5.57;;;1.38;;
64915;SDS011;51427;-27.442;153.014;2023-10-13T01:47:12;4.65;;;1.40;;
64915;SDS011;51427;-27.442;153.014;2023-10-13T01:49:41;5.95;;;1.63;;
64915;SDS011;51427;-27.442;153.014;2023-10-13T01:52:13;1.95;;;1.50;;
64915;SDS011;51427;-27.442;153.014;2023-10-13T01:54:44;3.38;;;1.20;;
64915;SDS011;51427;-27.442;153.014;2023-10-13T01:57:15;3.50;;;1.48;;
64915;SDS011;51427;-27.442;153.014;2023-10-13T01:59:49;3.83;;;1.42;;
64915;SDS011;51427;-27.442;153.014;2023-10-13T02:02:17;2.90;;;1.23;;
64915;SDS011;51427;-27.442;153.014;2023-10-13T02:04:54;3.72;;;1.38;;
64915;SDS011;51427;-27.442;153.014;2023-10-13T02:07:28;1.65;;;1.40;;
64915;SDS011;51427;-27.442;153.014;2023-10-13T02:10:00;2.78;;;1.38;;
64915;SDS011;51427;-27.442;153.014;2023-10-13T02:12:31;2.97;;;1.58;;
64915;SDS011;51427;-27.442;153.014;2023-10-13T02:15:11;2.78;;;1.30;;
64915;SDS011;51427;-27.442;153.014;2023-10-13T02:17:48;4.00;;;1.58;;
64915;SDS011;51427;-27.442;153.014;2023-10-13T02:20:20;3.00;;;1.55;;
64915;SDS011;51427;-27.442;153.014;2023-10-13T02:22:51;2.92;;;1.20;;
64915;SDS011;51427;-27.442;153.014;2023-10-13T02:25:19;2.97;;;1.55;;
64915;SDS011;51427;-27.442;153.014;2023-10-13T02:28:01;3.67;;;1.58;;
64915;SDS011;51427;-27.442;153.014;2023-10-13T02:30:43;3.85;;;1.30;;
64915;SDS011;51427;-27.442;153.014;2023-10-13T02:33:11;1.90;;;1.42;;
64915;SDS011;51427;-27.442;153.014;2023-10-13T02:35:39;3.17;;;1.33;;
64915;SDS011;51427;-27.442;153.014;2023-10-13T02:38:07;3.47;;;1.60;;
64915;SDS011;51427;-27.442;153.014;2023-10-13T02:40:40;3.13;;;1.48;;
64915;SDS011;51427;-27.442;153.014;2023-10-13T02:43:07;2.95;;;1.38;;
64915;SDS011;51427;-27.442;153.014;2023-10-13T02:45:34;2.65;;;1.63;;
64915;SDS011;51427;-27.442;153.014;2023-10-13T02:48:05;2.65;;;1.48;;
64915;SDS011;51427;-27.442;153.014;2023-10-13T02:50:39;3.92;;;1.50;;
64915;SDS011;51427;-27.442;153.014;2023-10-13T02:53:11;3.45;;;1.55;;
64915;SDS011;51427;-27.442;153.014;2023-10-13T02:55:48;4.57;;;1.77;;
64915;SDS011;51427;-27.442;153.014;2023-10-13T02:58:17;6.18;;;1.65;;
64915;SDS011;51427;-27.442;153.014;2023-10-13T03:00:44;3.67;;;1.85;;
64915;SDS011;51427;-27.442;153.014;2023-10-13T03:03:12;6.60;;;1.80;;
64915;SDS011;51427;-27.442;153.014;2023-10-13T03:05:45;3.40;;;1.50;;
64915;SDS011;51427;-27.442;153.014;2023-10-13T03:08:12;5.55;;;1.45;;
64915;SDS011;51427;-27.442;153.014;2023-10-13T03:10:51;3.25;;;1.70;;
64915;SDS011;51427;-27.442;153.014;2023-10-13T03:13:20;4.03;;;1.48;;
64915;SDS011;51427;-27.442;153.014;2023-10-13T03:15:47;3.15;;;1.58;;
64915;SDS011;51427;-27.442;153.014;2023-10-13T03:18:14;5.10;;;1.70;;
64915;SDS011;51427;-27.442;153.014;2023-10-13T03:20:44;2.17;;;1.50;;
64915;SDS011;51427;-27.442;153.014;2023-10-13T03:23:15;5.80;;;1.55;;
64915;SDS011;51427;-27.442;153.014;2023-10-13T03:25:43;3.47;;;1.30;;
64915;SDS011;51427;-27.442;153.014;2023-10-13T03:28:15;5.78;;;1.85;;
64915;SDS011;51427;-27.442;153.014;2023-10-13T03:30:46;5.07;;;1.80;;
64915;SDS011;51427;-27.442;153.014;2023-10-13T03:33:18;5.60;;;1.73;;
64915;SDS011;51427;-27.442;153.014;2023-10-13T03:35:51;7.40;;;2.35;;
64915;SDS011;51427;-27.442;153.014;2023-10-13T03:38:31;6.10;;;1.98;;
64915;SDS011;51427;-27.442;153.014;2023-10-13T03:41:02;8.80;;;1.90;;
64915;SDS011;51427;-27.442;153.014;2023-10-13T03:43:33;6.25;;;2.33;;
64915;SDS011;51427;-27.442;153.014;2023-10-13T03:46:36;4.40;;;1.80;;
64915;SDS011;51427;-27.442;153.014;2023-10-13T03:49:07;6.65;;;1.83;;
64915;SDS011;51427;-27.442;153.014;2023-10-13T03:51:39;5.75;;;1.92;;
64915;SDS011;51427;-27.442;153.014;2023-10-13T03:54:07;2.30;;;1.40;;
64915;SDS011;51427;-27.442;153.014;2023-10-13T03:56:35;3.42;;;1.77;;
64915;SDS011;51427;-27.442;153.014;2023-10-13T03:59:05;6.25;;;2.00;;
64915;SDS011;51427;-27.442;153.014;2023-10-13T04:01:44;4.75;;;1.70;;
64915;SDS011;51427;-27.442;153.014;2023-10-13T04:04:35;3.90;;;1.42;;
64915;SDS011;51427;-27.442;153.014;2023-10-13T04:07:28;7.55;;;1.83;;
64915;SDS011;51427;-27.442;153.014;2023-10-13T04:10:27;6.65;;;2.20;;
64915;SDS011;51427;-27.442;153.014;2023-10-13T04:13:12;8.52;;;2.17;;
64915;SDS011;51427;-27.442;153.014;2023-10-13T04:15:57;6.15;;;2.00;;
64915;SDS011;51427;-27.442;153.014;2023-10-13T04:18:40;7.00;;;1.70;;
64915;SDS011;51427;-27.442;153.014;2023-10-13T04:21:26;8.57;;;2.08;;
64915;SDS011;51427;-27.442;153.014;2023-10-13T04:24:02;7.93;;;2.42;;
64915;SDS011;51427;-27.442;153.014;2023-10-13T04:26:48;5.40;;;2.13;;
64915;SDS011;51427;-27.442;153.014;2023-10-13T04:29:35;5.07;;;1.67;;
64915;SDS011;51427;-27.442;153.014;2023-10-13T04:32:15;6.85;;;1.83;;
64915;SDS011;51427;-27.442;153.014;2023-10-13T04:35:06;12.57;;;2.60;;
64915;SDS011;51427;-27.442;153.014;2023-10-13T04:37:39;8.52;;;2.08;;
64915;SDS011;51427;-27.442;153.014;2023-10-13T04:40:20;6.38;;;2.05;;
64915;SDS011;51427;-27.442;153.014;2023-10-13T04:43:00;4.53;;;1.77;;
64915;SDS011;51427;-27.442;153.014;2023-10-13T04:45:50;8.35;;;2.35;;
64915;SDS011;51427;-27.442;153.014;2023-10-13T04:48:20;7.93;;;1.92;;
64915;SDS011;51427;-27.442;153.014;2023-10-13T04:50:48;7.38;;;1.90;;
64915;SDS011;51427;-27.442;153.014;2023-10-13T04:53:41;5.82;;;1.90;;
64915;SDS011;51427;-27.442;153.014;2023-10-13T04:56:37;7.03;;;2.15;;
64915;SDS011;51427;-27.442;153.014;2023-10-13T04:59:08;6.78;;;2.13;;
64915;SDS011;51427;-27.442;153.014;2023-10-13T05:01:43;7.05;;;2.20;;
64915;SDS011;51427;-27.442;153.014;2023-10-13T05:04:40;9.93;;;2.10;;
64915;SDS011;51427;-27.442;153.014;2023-10-13T05:07:43;5.07;;;1.60;;
64915;SDS011;51427;-27.442;153.014;2023-10-13T05:10:30;13.43;;;2.50;;
64915;SDS011;51427;-27.442;153.014;2023-10-13T05:13:20;7.72;;;1.90;;
64915;SDS011;51427;-27.442;153.014;2023-10-13T05:16:05;10.53;;;2.30;;
64915;SDS011;51427;-27.442;153.014;2023-10-13T05:18:51;10.00;;;2.53;;
64915;SDS011;51427;-27.442;153.014;2023-10-13T05:24:21;8.68;;;2.05;;
64915;SDS011;51427;-27.442;153.014;2023-10-13T05:27:07;5.60;;;1.83;;
64915;SDS011;51427;-27.442;153.014;2023-10-13T05:29:53;11.88;;;2.38;;
64915;SDS011;51427;-27.442;153.014;2023-10-13T05:35:24;7.85;;;2.40;;
64915;SDS011;51427;-27.442;153.014;2023-10-13T05:38:10;10.38;;;2.03;;
64915;SDS011;51427;-27.442;153.014;2023-10-13T05:40:57;9.15;;;1.75;;
64915;SDS011;51427;-27.442;153.014;2023-10-13T05:43:43;8.38;;;1.80;;
64915;SDS011;51427;-27.442;153.014;2023-10-13T05:49:06;7.88;;;2.00;;
64915;SDS011;51427;-27.442;153.014;2023-10-13T05:51:44;8.75;;;1.88;;
64915;SDS011;51427;-27.442;153.014;2023-10-13T05:54:32;11.05;;;2.38;;
64915;SDS011;51427;-27.442;153.014;2023-10-13T05:57:18;12.60;;;2.22;;
64915;SDS011;51427;-27.442;153.014;2023-10-13T06:00:04;10.52;;;2.53;;
64915;SDS011;51427;-27.442;153.014;2023-10-13T06:02:51;8.35;;;2.10;;
64915;SDS011;51427;-27.442;153.014;2023-10-13T06:05:39;7.25;;;1.60;;
64915;SDS011;51427;-27.442;153.014;2023-10-13T06:08:25;10.45;;;2.28;;
64915;SDS011;51427;-27.442;153.014;2023-10-13T06:11:10;7.50;;;2.15;;
64915;SDS011;51427;-27.442;153.014;2023-10-13T06:13:56;8.68;;;2.47;;
64915;SDS011;51427;-27.442;153.014;2023-10-13T06:16:42;4.63;;;1.85;;
64915;SDS011;51427;-27.442;153.014;2023-10-13T06:19:30;6.97;;;2.00;;
64915;SDS011;51427;-27.442;153.014;2023-10-13T06:22:16;8.65;;;2.20;;
64915;SDS011;51427;-27.442;153.014;2023-10-13T06:27:47;6.07;;;2.45;;
64915;SDS011;51427;-27.442;153.014;2023-10-13T06:33:00;8.57;;;2.22;;
64915;SDS011;51427;-27.442;153.014;2023-10-13T06:35:30;8.18;;;2.03;;
64915;SDS011;51427;-27.442;153.014;2023-10-13T06:38:00;12.05;;;2.33;;
64915;SDS011;51427;-27.442;153.014;2023-10-13T06:40:28;8.05;;;2.10;;
64915;SDS011;51427;-27.442;153.014;2023-10-13T06:42:59;12.05;;;2.20;;
64915;SDS011;51427;-27.442;153.014;2023-10-13T06:45:43;10.18;;;2.03;;
64915;SDS011;51427;-27.442;153.014;2023-10-13T06:48:26;12.65;;;2.70;;
64915;SDS011;51427;-27.442;153.014;2023-10-13T06:51:06;10.73;;;2.35;;
64915;SDS011;51427;-27.442;153.014;2023-10-13T06:53:44;5.93;;;2.28;;
64915;SDS011;51427;-27.442;153.014;2023-10-13T06:56:14;9.80;;;2.13;;
64915;SDS011;51427;-27.442;153.014;2023-10-13T06:59:03;12.45;;;2.70;;
64915;SDS011;51427;-27.442;153.014;2023-10-13T07:01:34;6.88;;;2.08;;
64915;SDS011;51427;-27.442;153.014;2023-10-13T07:04:09;13.82;;;2.63;;
64915;SDS011;51427;-27.442;153.014;2023-10-13T07:06:40;10.13;;;2.25;;
64915;SDS011;51427;-27.442;153.014;2023-10-13T07:09:16;7.38;;;2.10;;
64915;SDS011;51427;-27.442;153.014;2023-10-13T07:12:03;10.13;;;2.88;;
64915;SDS011;51427;-27.442;153.014;2023-10-13T07:14:49;10.65;;;2.17;;
64915;SDS011;51427;-27.442;153.014;2023-10-13T07:17:40;4.97;;;1.88;;
64915;SDS011;51427;-27.442;153.014;2023-10-13T07:20:10;10.18;;;2.53;;
64915;SDS011;51427;-27.442;153.014;2023-10-13T07:22:42;12.20;;;2.50;;
64915;SDS011;51427;-27.442;153.014;2023-10-13T07:28:07;9.20;;;2.20;;
64915;SDS011;51427;-27.442;153.014;2023-10-13T07:30:36;10.82;;;2.78;;
64915;SDS011;51427;-27.442;153.014;2023-10-13T07:33:20;11.85;;;2.47;;
64915;SDS011;51427;-27.442;153.014;2023-10-13T07:36:04;10.65;;;2.28;;
64915;SDS011;51427;-27.442;153.014;2023-10-13T07:38:44;10.27;;;2.42;;
64915;SDS011;51427;-27.442;153.014;2023-10-13T07:41:32;9.82;;;2.50;;
64915;SDS011;51427;-27.442;153.014;2023-10-13T07:44:02;9.93;;;2.13;;
64915;SDS011;51427;-27.442;153.014;2023-10-13T07:46:32;8.70;;;2.35;;
64915;SDS011;51427;-27.442;153.014;2023-10-13T07:49:01;13.38;;;2.55;;
64915;SDS011;51427;-27.442;153.014;2023-10-13T07:51:36;14.27;;;2.58;;
64915;SDS011;51427;-27.442;153.014;2023-10-13T07:54:12;8.15;;;2.40;;
64915;SDS011;51427;-27.442;153.014;2023-10-13T07:56:48;7.43;;;2.05;;
64915;SDS011;51427;-27.442;153.014;2023-10-13T07:59:16;14.27;;;2.33;;
64915;SDS011;51427;-27.442;153.014;2023-10-13T08:01:49;14.93;;;2.33;;
64915;SDS011;51427;-27.442;153.014;2023-10-13T08:04:37;5.80;;;2.20;;
64915;SDS011;51427;-27.442;153.014;2023-10-13T08:07:08;12.32;;;2.47;;
64915;SDS011;51427;-27.442;153.014;2023-10-13T08:09:40;10.00;;;2.65;;
64915;SDS011;51427;-27.442;153.014;2023-10-13T08:12:17;10.27;;;2.25;;
64915;SDS011;51427;-27.442;153.014;2023-10-13T08:14:47;7.70;;;2.05;;
64915;SDS011;51427;-27.442;153.014;2023-10-13T08:17:35;9.00;;;1.95;;
64915;SDS011;51427;-27.442;153.014;2023-10-13T08:20:10;9.55;;;2.38;;
64915;SDS011;51427;-27.442;153.014;2023-10-13T08:22:42;7.80;;;1.85;;
64915;SDS011;51427;-27.442;153.014;2023-10-13T08:25:13;11.50;;;2.58;;
64915;SDS011;51427;-27.442;153.014;2023-10-13T08:27:46;8.77;;;2.17;;
64915;SDS011;51427;-27.442;153.014;2023-10-13T08:30:53;8.93;;;2.05;;
64915;SDS011;51427;-27.442;153.014;2023-10-13T08:33:23;9.95;;;2.45;;
64915;SDS011;51427;-27.442;153.014;2023-10-13T08:35:53;6.35;;;2.00;;
64915;SDS011;51427;-27.442;153.014;2023-10-13T08:38:41;9.02;;;2.38;;
64915;SDS011;51427;-27.442;153.014;2023-10-13T08:41:21;9.35;;;2.20;;
64915;SDS011;51427;-27.442;153.014;2023-10-13T08:43:50;7.28;;;1.88;;
64915;SDS011;51427;-27.442;153.014;2023-10-13T08:46:19;3.95;;;1.80;;
64915;SDS011;51427;-27.442;153.014;2023-10-13T08:48:55;9.60;;;2.15;;
64915;SDS011;51427;-27.442;153.014;2023-10-13T08:51:35;9.02;;;2.63;;
64915;SDS011;51427;-27.442;153.014;2023-10-13T08:54:15;6.75;;;2.03;;
64915;SDS011;51427;-27.442;153.014;2023-10-13T08:57:00;8.52;;;2.35;;
64915;SDS011;51427;-27.442;153.014;2023-10-13T09:00:08;7.22;;;2.40;;
64915;SDS011;51427;-27.442;153.014;2023-10-13T09:03:14;7.75;;;2.33;;
64915;SDS011;51427;-27.442;153.014;2023-10-13T09:06:13;8.15;;;2.25;;
64915;SDS011;51427;-27.442;153.014;2023-10-13T09:08:45;9.05;;;2.13;;
64915;SDS011;51427;-27.442;153.014;2023-10-13T09:11:34;6.00;;;2.25;;
64915;SDS011;51427;-27.442;153.014;2023-10-13T09:14:22;12.38;;;2.50;;
64915;SDS011;51427;-27.442;153.014;2023-10-13T09:17:03;8.65;;;2.05;;
64915;SDS011;51427;-27.442;153.014;2023-10-13T09:19:53;9.57;;;2.28;;
64915;SDS011;51427;-27.442;153.014;2023-10-13T09:22:25;17.05;;;2.90;;
64915;SDS011;51427;-27.442;153.014;2023-10-13T09:25:04;11.75;;;2.60;;
64915;SDS011;51427;-27.442;153.014;2023-10-13T09:27:39;7.25;;;2.03;;
64915;SDS011;51427;-27.442;153.014;2023-10-13T09:30:07;5.78;;;2.53;;
64915;SDS011;51427;-27.442;153.014;2023-10-13T09:33:09;11.13;;;2.60;;
64915;SDS011;51427;-27.442;153.014;2023-10-13T09:35:44;11.38;;;2.53;;
64915;SDS011;51427;-27.442;153.014;2023-10-13T09:38:16;9.98;;;2.60;;
64915;SDS011;51427;-27.442;153.014;2023-10-13T09:40:44;10.05;;;2.65;;
64915;SDS011;51427;-27.442;153.014;2023-10-13T09:43:16;9.40;;;2.50;;
64915;SDS011;51427;-27.442;153.014;2023-10-13T09:45:48;9.40;;;2.35;;
64915;SDS011;51427;-27.442;153.014;2023-10-13T09:48:43;10.57;;;2.42;;
64915;SDS011;51427;-27.442;153.014;2023-10-13T09:51:30;11.05;;;2.70;;
64915;SDS011;51427;-27.442;153.014;2023-10-13T09:54:08;13.20;;;3.00;;
64915;SDS011;51427;-27.442;153.014;2023-10-13T09:56:50;11.93;;;2.80;;
64915;SDS011;51427;-27.442;153.014;2023-10-13T09:59:45;6.20;;;2.42;;
64915;SDS011;51427;-27.442;153.014;2023-10-13T10:02:35;11.50;;;2.83;;
64915;SDS011;51427;-27.442;153.014;2023-10-13T10:05:09;10.20;;;2.45;;
64915;SDS011;51427;-27.442;153.014;2023-10-13T10:07:57;6.90;;;2.20;;
64915;SDS011;51427;-27.442;153.014;2023-10-13T10:10:27;9.98;;;2.33;;
64915;SDS011;51427;-27.442;153.014;2023-10-13T10:13:26;9.38;;;2.50;;
64915;SDS011;51427;-27.442;153.014;2023-10-13T10:16:29;6.47;;;2.47;;
64915;SDS011;51427;-27.442;153.014;2023-10-13T10:19:17;10.20;;;2.58;;
64915;SDS011;51427;-27.442;153.014;2023-10-13T10:21:46;8.15;;;2.05;;
64915;SDS011;51427;-27.442;153.014;2023-10-13T10:24:15;7.90;;;2.22;;
64915;SDS011;51427;-27.442;153.014;2023-10-13T10:26:56;10.00;;;2.40;;
64915;SDS011;51427;-27.442;153.014;2023-10-13T10:29:53;7.88;;;2.03;;
64915;SDS011;51427;-27.442;153.014;2023-10-13T10:32:31;8.38;;;2.45;;
64915;SDS011;51427;-27.442;153.014;2023-10-13T10:35:04;7.05;;;2.15;;
64915;SDS011;51427;-27.442;153.014;2023-10-13T10:37:41;9.27;;;2.63;;
64915;SDS011;51427;-27.442;153.014;2023-10-13T10:40:15;9.30;;;2.38;;
64915;SDS011;51427;-27.442;153.014;2023-10-13T10:43:01;9.68;;;2.55;;
64915;SDS011;51427;-27.442;153.014;2023-10-13T10:45:37;11.02;;;2.63;;
64915;SDS011;51427;-27.442;153.014;2023-10-13T10:48:11;10.25;;;2.42;;
64915;SDS011;51427;-27.442;153.014;2023-10-13T10:50:54;11.37;;;2.90;;
64915;SDS011;51427;-27.442;153.014;2023-10-13T10:53:33;11.55;;;2.63;;
64915;SDS011;51427;-27.442;153.014;2023-10-13T10:56:10;7.20;;;2.70;;
64915;SDS011;51427;-27.442;153.014;2023-10-13T10:58:55;12.65;;;3.08;;
64915;SDS011;51427;-27.442;153.014;2023-10-13T11:01:29;20.92;;;4.32;;
64915;SDS011;51427;-27.442;153.014;2023-10-13T11:04:07;14.93;;;3.30;;
64915;SDS011;51427;-27.442;153.014;2023-10-13T11:06:55;9.82;;;3.20;;
64915;SDS011;51427;-27.442;153.014;2023-10-13T11:09:30;16.05;;;3.30;;
64915;SDS011;51427;-27.442;153.014;2023-10-13T11:12:19;14.57;;;3.38;;
64915;SDS011;51427;-27.442;153.014;2023-10-13T11:15:04;11.65;;;3.10;;
64915;SDS011;51427;-27.442;153.014;2023-10-13T11:17:47;11.75;;;3.00;;
64915;SDS011;51427;-27.442;153.014;2023-10-13T11:20:22;12.35;;;3.88;;
64915;SDS011;51427;-27.442;153.014;2023-10-13T11:23:12;14.10;;;3.35;;
64915;SDS011;51427;-27.442;153.014;2023-10-13T11:25:41;17.70;;;3.30;;
64915;SDS011;51427;-27.442;153.014;2023-10-13T11:28:12;15.70;;;3.53;;
64915;SDS011;51427;-27.442;153.014;2023-10-13T11:30:45;14.80;;;3.45;;
64915;SDS011;51427;-27.442;153.014;2023-10-13T11:33:17;20.13;;;3.95;;
64915;SDS011;51427;-27.442;153.014;2023-10-13T11:36:08;17.85;;;3.42;;
64915;SDS011;51427;-27.442;153.014;2023-10-13T11:38:41;14.52;;;3.25;;
64915;SDS011;51427;-27.442;153.014;2023-10-13T11:41:15;16.10;;;3.50;;
64915;SDS011;51427;-27.442;153.014;2023-10-13T11:46:23;10.73;;;3.03;;
64915;SDS011;51427;-27.442;153.014;2023-10-13T11:49:02;11.00;;;2.77;;
64915;SDS011;51427;-27.442;153.014;2023-10-13T11:51:51;11.07;;;3.55;;
64915;SDS011;51427;-27.442;153.014;2023-10-13T11:54:42;18.23;;;3.80;;
64915;SDS011;51427;-27.442;153.014;2023-10-13T11:57:10;13.70;;;3.08;;
64915;SDS011;51427;-27.442;153.014;2023-10-13T11:59:38;18.67;;;3.38;;
64915;SDS011;51427;-27.442;153.014;2023-10-13T12:02:20;11.82;;;3.08;;
64915;SDS011;51427;-27.442;153.014;2023-10-13T12:04:52;10.55;;;3.03;;
64915;SDS011;51427;-27.442;153.014;2023-10-13T12:07:23;17.20;;;3.25;;
64915;SDS011;51427;-27.442;153.014;2023-10-13T12:10:11;13.45;;;3.20;;
64915;SDS011;51427;-27.442;153.014;2023-10-13T12:12:46;10.07;;;2.80;;
64915;SDS011;51427;-27.442;153.014;2023-10-13T12:15:20;11.57;;;2.72;;
64915;SDS011;51427;-27.442;153.014;2023-10-13T12:17:51;12.35;;;2.92;;
64915;SDS011;51427;-27.442;153.014;2023-10-13T12:20:27;16.77;;;4.57;;
64915;SDS011;51427;-27.442;153.014;2023-10-13T12:23:02;12.18;;;3.03;;
64915;SDS011;51427;-27.442;153.014;2023-10-13T12:25:41;11.82;;;3.03;;
64915;SDS011;51427;-27.442;153.014;2023-10-13T12:28:23;13.13;;;2.95;;
64915;SDS011;51427;-27.442;153.014;2023-10-13T12:31:02;15.82;;;3.55;;
64915;SDS011;51427;-27.442;153.014;2023-10-13T12:33:33;16.88;;;3.70;;
64915;SDS011;51427;-27.442;153.014;2023-10-13T12:36:06;11.88;;;3.33;;
64915;SDS011;51427;-27.442;153.014;2023-10-13T12:38:37;16.05;;;3.10;;
64915;SDS011;51427;-27.442;153.014;2023-10-13T12:41:14;12.60;;;2.90;;
64915;SDS011;51427;-27.442;153.014;2023-10-13T12:44:05;11.73;;;3.17;;
64915;SDS011;51427;-27.442;153.014;2023-10-13T12:46:52;15.70;;;3.63;;
64915;SDS011;51427;-27.442;153.014;2023-10-13T12:49:38;15.18;;;3.42;;
64915;SDS011;51427;-27.442;153.014;2023-10-13T12:52:09;12.05;;;2.85;;
64915;SDS011;51427;-27.442;153.014;2023-10-13T12:55:10;15.55;;;3.47;;
64915;SDS011;51427;-27.442;153.014;2023-10-13T12:57:39;21.75;;;3.60;;
64915;SDS011;51427;-27.442;153.014;2023-10-13T13:00:11;20.17;;;3.30;;
64915;SDS011;51427;-27.442;153.014;2023-10-13T13:02:51;17.35;;;3.85;;
64915;SDS011;51427;-27.442;153.014;2023-10-13T13:05:21;13.18;;;3.30;;
64915;SDS011;51427;-27.442;153.014;2023-10-13T13:07:54;15.20;;;3.05;;
64915;SDS011;51427;-27.442;153.014;2023-10-13T13:10:22;18.08;;;3.50;;
64915;SDS011;51427;-27.442;153.014;2023-10-13T13:13:03;13.43;;;3.22;;
64915;SDS011;51427;-27.442;153.014;2023-10-13T13:15:31;19.48;;;3.10;;
64915;SDS011;51427;-27.442;153.014;2023-10-13T13:17:59;13.80;;;2.85;;
64915;SDS011;51427;-27.442;153.014;2023-10-13T13:23:05;18.23;;;3.10;;
64915;SDS011;51427;-27.442;153.014;2023-10-13T13:25:33;9.60;;;2.67;;
64915;SDS011;51427;-27.442;153.014;2023-10-13T13:28:10;17.10;;;3.42;;
64915;SDS011;51427;-27.442;153.014;2023-10-13T13:30:40;17.98;;;3.30;;
64915;SDS011;51427;-27.442;153.014;2023-10-13T13:33:08;15.43;;;3.28;;
64915;SDS011;51427;-27.442;153.014;2023-10-13T13:35:42;16.58;;;2.72;;
64915;SDS011;51427;-27.442;153.014;2023-10-13T13:38:14;17.60;;;3.45;;
64915;SDS011;51427;-27.442;153.014;2023-10-13T13:40:48;14.02;;;3.15;;
64915;SDS011;51427;-27.442;153.014;2023-10-13T13:43:23;12.02;;;3.20;;
64915;SDS011;51427;-27.442;153.014;2023-10-13T13:46:19;13.55;;;3.00;;
64915;SDS011;51427;-27.442;153.014;2023-10-13T13:48:51;13.15;;;2.63;;
64915;SDS011;51427;-27.442;153.014;2023-10-13T13:51:46;12.77;;;3.03;;
64915;SDS011;51427;-27.442;153.014;2023-10-13T13:54:18;14.95;;;3.03;;
64915;SDS011;51427;-27.442;153.014;2023-10-13T13:56:46;15.43;;;3.53;;
64915;SDS011;51427;-27.442;153.014;2023-10-13T13:59:15;15.68;;;3.08;;
64915;SDS011;51427;-27.442;153.014;2023-10-13T14:01:51;18.88;;;3.35;;
64915;SDS011;51427;-27.442;153.014;2023-10-13T14:04:18;15.07;;;3.67;;
64915;SDS011;51427;-27.442;153.014;2023-10-13T14:06:46;10.10;;;3.30;;
64915;SDS011;51427;-27.442;153.014;2023-10-13T14:09:16;14.63;;;3.40;;
64915;SDS011;51427;-27.442;153.014;2023-10-13T14:12:03;10.32;;;2.88;;
64915;SDS011;51427;-27.442;153.014;2023-10-13T14:14:49;15.95;;;3.45;;
64915;SDS011;51427;-27.442;153.014;2023-10-13T14:17:23;11.02;;;2.55;;
64915;SDS011;51427;-27.442;153.014;2023-10-13T14:19:56;10.35;;;2.38;;
64915;SDS011;51427;-27.442;153.014;2023-10-13T14:22:24;18.13;;;3.28;;
64915;SDS011;51427;-27.442;153.014;2023-10-13T14:24:52;9.98;;;2.70;;
64915;SDS011;51427;-27.442;153.014;2023-10-13T14:27:24;16.50;;;3.25;;
64915;SDS011;51427;-27.442;153.014;2023-10-13T14:29:52;11.20;;;2.30;;
64915;SDS011;51427;-27.442;153.014;2023-10-13T14:32:23;12.63;;;2.47;;
64915;SDS011;51427;-27.442;153.014;2023-10-13T14:34:53;13.40;;;2.92;;
64915;SDS011;51427;-27.442;153.014;2023-10-13T14:37:40;11.70;;;2.78;;
64915;SDS011;51427;-27.442;153.014;2023-10-13T14:40:08;11.80;;;3.50;;
64915;SDS011;51427;-27.442;153.014;2023-10-13T14:42:40;15.45;;;3.13;;
64915;SDS011;51427;-27.442;153.014;2023-10-13T14:45:08;9.40;;;2.45;;
64915;SDS011;51427;-27.442;153.014;2023-10-13T14:47:39;12.05;;;3.10;;
64915;SDS011;51427;-27.442;153.014;2023-10-13T14:50:07;19.30;;;3.70;;
64915;SDS011;51427;-27.442;153.014;2023-10-13T14:52:50;11.98;;;2.75;;
64915;SDS011;51427;-27.442;153.014;2023-10-13T14:55:18;14.13;;;3.00;;
64915;SDS011;51427;-27.442;153.014;2023-10-13T14:57:50;11.00;;;2.58;;
64915;SDS011;51427;-27.442;153.014;2023-10-13T15:00:18;13.57;;;3.00;;
64915;SDS011;51427;-27.442;153.014;2023-10-13T15:02:54;13.30;;;2.55;;
64915;SDS011;51427;-27.442;153.014;2023-10-13T15:05:22;13.35;;;3.33;;
64915;SDS011;51427;-27.442;153.014;2023-10-13T15:07:50;14.65;;;3.38;;
64915;SDS011;51427;-27.442;153.014;2023-10-13T15:10:17;12.00;;;2.78;;
64915;SDS011;51427;-27.442;153.014;2023-10-13T15:12:46;9.98;;;2.42;;
64915;SDS011;51427;-27.442;153.014;2023-10-13T15:15:14;12.13;;;2.97;;
64915;SDS011;51427;-27.442;153.014;2023-10-13T15:17:42;13.63;;;3.33;;
64915;SDS011;51427;-27.442;153.014;2023-10-13T15:20:11;12.35;;;3.05;;
64915;SDS011;51427;-27.442;153.014;2023-10-13T15:22:44;11.57;;;2.72;;
64915;SDS011;51427;-27.442;153.014;2023-10-13T15:25:18;13.52;;;2.70;;